createdAt,value
2023-05-09T00:00:58.908Z,8.60
2023-05-09T00:05:17.495Z,8.60
2023-05-09T00:09:36.245Z,8.50
2023-05-09T00:13:56.001Z,8.40
2023-05-09T00:18:14.427Z,8.40
2023-05-09T00:22:32.325Z,8.30
2023-05-09T00:26:51.700Z,8.20
2023-05-09T00:31:11.252Z,8.20
2023-05-09T00:35:29.247Z,8.20
2023-05-09T00:39:47.434Z,8.10
2023-05-09T00:44:07.214Z,8.00
2023-05-09T00:48:26.819Z,8.00
2023-05-09T00:52:44.574Z,7.90
2023-05-09T00:57:03.323Z,7.90
2023-05-09T01:01:22.515Z,7.80
2023-05-09T01:05:47.690Z,7.80
2023-05-09T01:10:12.807Z,7.70
2023-05-09T01:14:39.084Z,7.70
2023-05-09T01:19:07.231Z,7.60
2023-05-09T01:23:59.968Z,7.50
2023-05-09T01:28:35.658Z,7.40
2023-05-09T01:33:00.809Z,7.40
2023-05-09T01:37:25.077Z,7.40
2023-05-09T01:41:44.578Z,7.30
2023-05-09T01:46:06.294Z,7.30
2023-05-09T01:50:26.153Z,7.30
2023-05-09T01:54:46.653Z,7.20
2023-05-09T01:59:07.948Z,7.20
2023-05-09T02:03:27.642Z,7.20
2023-05-09T02:07:47.863Z,7.20
2023-05-09T02:12:06.885Z,7.20
2023-05-09T02:16:24.425Z,7.20
2023-05-09T02:20:42.529Z,7.10
2023-05-09T02:25:03.580Z,7.10
2023-05-09T02:29:30.025Z,7.10
2023-05-09T02:33:49.654Z,7.10
2023-05-09T02:38:07.698Z,7.10
2023-05-09T02:42:30.281Z,7.00
2023-05-09T02:46:49.249Z,7.00
2023-05-09T02:51:07.416Z,6.90
2023-05-09T02:55:25.570Z,6.90
2023-05-09T02:59:44.886Z,6.90
2023-05-09T03:04:04.799Z,6.90
2023-05-09T03:08:22.643Z,6.80
2023-05-09T03:12:43.822Z,6.80
2023-05-09T03:17:06.216Z,6.80
2023-05-09T03:21:26.367Z,6.80
2023-05-09T03:25:44.064Z,6.70
2023-05-09T03:30:02.304Z,6.70
2023-05-09T03:34:21.529Z,6.70
2023-05-09T03:38:41.706Z,6.60
2023-05-09T03:42:59.534Z,6.60
2023-05-09T03:47:17.595Z,6.70
2023-05-09T03:51:36.797Z,6.80
2023-05-09T03:55:59.607Z,7.10
2023-05-09T04:00:22.050Z,7.50
2023-05-09T04:04:51.130Z,7.80
2023-05-09T04:09:14.688Z,8.20
2023-05-09T04:13:33.530Z,8.60
2023-05-09T04:17:54.591Z,9.00
2023-05-09T04:22:12.726Z,9.40
2023-05-09T04:26:32.344Z,9.80
2023-05-09T04:30:52.212Z,10.30
2023-05-09T04:35:13.457Z,10.90
2023-05-09T04:39:33.882Z,11.50
2023-05-09T04:44:03.345Z,11.90
2023-05-09T04:48:22.314Z,12.30
2023-05-09T04:52:41.119Z,12.60
2023-05-09T04:57:09.934Z,12.90
2023-05-09T05:01:33.561Z,13.10
2023-05-09T05:05:53.145Z,13.50
2023-05-09T05:10:11.742Z,13.80
2023-05-09T05:14:32.359Z,14.20
2023-05-09T05:18:51.919Z,14.40
2023-05-09T05:23:11.937Z,14.70
2023-05-09T05:27:29.426Z,14.90
2023-05-09T05:31:47.811Z,15.20
2023-05-09T05:36:07.832Z,15.50
2023-05-09T05:40:26.721Z,15.80
2023-05-09T05:44:47.903Z,16.00
2023-05-09T05:49:06.224Z,16.30
2023-05-09T05:53:29.831Z,16.60
2023-05-09T05:57:48.690Z,17.00
2023-05-09T06:02:09.345Z,17.20
2023-05-09T06:06:31.097Z,17.30
2023-05-09T06:10:49.786Z,17.30
2023-05-09T06:15:10.375Z,17.40
2023-05-09T06:19:34.109Z,17.50
2023-05-09T06:24:07.874Z,17.60
2023-05-09T06:28:30.166Z,17.90
2023-05-09T06:32:49.801Z,18.10
2023-05-09T06:37:07.544Z,18.40
2023-05-09T06:41:26.075Z,18.80
2023-05-09T06:45:45.434Z,19.50
2023-05-09T06:50:05.209Z,20.00
2023-05-09T06:54:22.770Z,20.10
2023-05-09T06:58:41.197Z,20.20
2023-05-09T07:03:01.164Z,20.60
2023-05-09T07:07:20.408Z,20.90
2023-05-09T07:11:38.287Z,21.10
2023-05-09T07:15:56.391Z,21.50
2023-05-09T07:20:15.756Z,22.10
2023-05-09T07:24:35.558Z,22.60
2023-05-09T07:28:53.696Z,22.70
2023-05-09T07:33:11.616Z,22.60
2023-05-09T07:37:31.186Z,22.70
2023-05-09T07:41:50.599Z,22.90
2023-05-09T07:46:09.025Z,23.20
2023-05-09T07:50:26.883Z,23.40
2023-05-09T07:54:46.553Z,23.50
2023-05-09T07:59:06.404Z,23.70
2023-05-09T08:03:24.197Z,23.80
2023-05-09T08:07:42.131Z,24.10
2023-05-09T08:12:01.518Z,24.40
2023-05-09T08:16:21.476Z,24.60
2023-05-09T08:20:39.298Z,24.60
2023-05-09T08:24:57.442Z,24.60
2023-05-09T08:29:17.733Z,24.60
2023-05-09T08:33:36.581Z,24.70
2023-05-09T08:37:54.640Z,25.00
2023-05-09T08:42:15.899Z,25.20
2023-05-09T08:46:38.410Z,25.10
2023-05-09T08:50:58.829Z,24.90
2023-05-09T08:55:16.604Z,24.90
2023-05-09T08:59:36.910Z,25.10
2023-05-09T09:03:57.765Z,25.10
2023-05-09T09:08:17.090Z,25.10
2023-05-09T09:12:35.883Z,25.00
2023-05-09T09:16:58.436Z,24.80
2023-05-09T09:21:19.321Z,24.70
2023-05-09T09:25:37.847Z,24.70
2023-05-09T09:29:55.864Z,24.70
2023-05-09T09:34:15.400Z,24.70
2023-05-09T09:38:43.664Z,24.70
2023-05-09T09:43:02.459Z,24.60
2023-05-09T09:47:20.388Z,24.60
2023-05-09T09:51:39.213Z,24.90
2023-05-09T09:55:58.684Z,25.10
2023-05-09T10:00:19.849Z,25.30
2023-05-09T10:04:41.533Z,25.30
2023-05-09T10:09:00.027Z,25.20
2023-05-09T10:13:19.818Z,25.00
2023-05-09T10:17:39.453Z,24.90
2023-05-09T10:22:00.136Z,24.90
2023-05-09T10:26:23.480Z,25.00
2023-05-09T10:30:57.901Z,25.00
2023-05-09T10:35:18.527Z,24.70
2023-05-09T10:39:38.449Z,24.60
2023-05-09T10:43:59.786Z,24.50
2023-05-09T10:48:21.011Z,24.60
2023-05-09T10:53:14.465Z,24.80
2023-05-09T10:57:33.690Z,24.80
2023-05-09T11:02:01.084Z,24.80
2023-05-09T11:06:43.905Z,25.00
2023-05-09T11:11:08.336Z,24.90
2023-05-09T11:15:28.503Z,24.80
2023-05-09T11:20:05.616Z,24.90
2023-05-09T11:24:31.005Z,25.00
2023-05-09T11:28:55.036Z,24.90
2023-05-09T11:33:24.178Z,24.80
2023-05-09T11:37:48.560Z,24.60
2023-05-09T11:42:10.600Z,24.50
2023-05-09T11:46:29.457Z,24.40
2023-05-09T11:50:49.671Z,24.10
2023-05-09T11:55:11.555Z,23.80
2023-05-09T11:59:35.833Z,23.40
2023-05-09T12:03:54.376Z,22.80
2023-05-09T12:08:13.602Z,22.10
2023-05-09T12:12:35.615Z,21.50
2023-05-09T12:16:55.363Z,21.00
2023-05-09T12:21:16.006Z,20.50
2023-05-09T12:25:33.590Z,20.20
2023-05-09T12:29:53.051Z,20.10
2023-05-09T12:34:13.711Z,19.90
2023-05-09T12:38:33.734Z,19.70
2023-05-09T12:42:53.766Z,19.70
2023-05-09T12:47:15.953Z,19.60
2023-05-09T12:51:35.434Z,19.60
2023-05-09T12:56:02.661Z,19.50
2023-05-09T13:00:23.328Z,19.60
2023-05-09T13:04:40.484Z,19.60
2023-05-09T13:09:01.789Z,19.70
2023-05-09T13:13:20.154Z,19.70
2023-05-09T13:17:37.595Z,19.80
2023-05-09T13:21:56.734Z,19.80
2023-05-09T13:26:18.230Z,19.90
2023-05-09T13:30:38.343Z,20.00
2023-05-09T13:34:55.962Z,20.00
2023-05-09T13:39:14.161Z,20.00
2023-05-09T13:43:33.465Z,20.10
2023-05-09T13:47:53.237Z,20.10
2023-05-09T13:52:11.230Z,20.20
2023-05-09T13:56:29.465Z,20.20
2023-05-09T14:00:48.734Z,20.20
2023-05-09T14:05:09.355Z,20.30
2023-05-09T14:09:26.564Z,20.20
2023-05-09T14:13:47.699Z,20.30
2023-05-09T14:18:07.172Z,20.40
2023-05-09T14:22:26.895Z,20.40
2023-05-09T14:26:45.151Z,20.40
2023-05-09T14:31:06.436Z,20.40
2023-05-09T14:35:25.561Z,20.40
2023-05-09T14:39:46.900Z,20.40
2023-05-09T14:44:06.847Z,20.40
2023-05-09T14:48:24.564Z,20.40
2023-05-09T14:52:44.922Z,20.40
2023-05-09T14:57:05.367Z,20.40
2023-05-09T15:01:24.873Z,20.40
2023-05-09T15:05:43.547Z,20.40
2023-05-09T15:10:05.965Z,20.40
2023-05-09T15:14:25.911Z,20.30
2023-05-09T15:18:46.450Z,20.30
2023-05-09T15:23:06.692Z,20.30
2023-05-09T15:27:27.204Z,20.30
2023-05-09T15:31:46.615Z,20.30
2023-05-09T15:36:04.600Z,20.30
2023-05-09T15:40:22.596Z,20.20
2023-05-09T15:44:42.371Z,20.20
2023-05-09T15:49:01.938Z,20.10
2023-05-09T15:53:19.779Z,20.10
2023-05-09T15:57:37.818Z,20.10
2023-05-09T16:01:57.589Z,20.10
2023-05-09T16:06:18.057Z,20.10
2023-05-09T16:10:38.508Z,20.10
2023-05-09T16:14:56.515Z,20.00
2023-05-09T16:19:16.156Z,20.10
2023-05-09T16:23:39.453Z,20.00
2023-05-09T16:27:56.707Z,20.00
2023-05-09T16:32:14.646Z,20.00
2023-05-09T16:36:34.194Z,20.00
2023-05-09T16:40:54.022Z,19.90
2023-05-09T16:45:12.719Z,19.80
2023-05-09T16:49:34.367Z,19.70
2023-05-09T16:53:55.533Z,19.70
2023-05-09T16:58:15.846Z,19.60
2023-05-09T17:02:33.243Z,19.50
2023-05-09T17:06:51.883Z,19.40
2023-05-09T17:11:11.148Z,19.30
2023-05-09T17:15:30.820Z,19.20
2023-05-09T17:19:49.298Z,19.10
2023-05-09T17:24:07.284Z,19.00
2023-05-09T17:28:26.194Z,18.90
2023-05-09T17:32:45.895Z,18.70
2023-05-09T17:37:05.963Z,18.70
2023-05-09T17:41:24.997Z,18.60
2023-05-09T17:45:46.030Z,18.50
2023-05-09T17:50:04.415Z,18.40
2023-05-09T17:54:22.406Z,18.30
2023-05-09T17:58:40.553Z,18.20
2023-05-09T18:03:01.590Z,18.20
2023-05-09T18:07:19.617Z,18.10
2023-05-09T18:11:37.740Z,18.00
2023-05-09T18:15:59.698Z,17.90
2023-05-09T18:20:21.393Z,17.80
2023-05-09T18:24:40.985Z,17.70
2023-05-09T18:28:59.235Z,17.50
2023-05-09T18:33:17.100Z,17.40
2023-05-09T18:37:37.196Z,17.30
2023-05-09T18:41:56.171Z,17.20
2023-05-09T18:46:17.524Z,17.00
2023-05-09T18:50:37.777Z,16.90
2023-05-09T18:54:58.358Z,16.70
2023-05-09T18:59:17.907Z,16.60
2023-05-09T19:03:35.988Z,16.40
2023-05-09T19:07:54.506Z,16.30
2023-05-09T19:12:17.748Z,16.10
2023-05-09T19:16:36.545Z,16.10
2023-05-09T19:20:53.976Z,15.90
2023-05-09T19:25:12.108Z,15.80
2023-05-09T19:29:31.871Z,15.80
2023-05-09T19:33:51.692Z,15.70
2023-05-09T19:38:10.894Z,15.60
2023-05-09T19:42:30.460Z,15.60
2023-05-09T19:46:50.240Z,15.50
2023-05-09T19:51:12.351Z,15.40
2023-05-09T19:55:30.909Z,15.30
2023-05-09T19:59:49.364Z,15.30
2023-05-09T20:04:10.286Z,15.20
2023-05-09T20:08:28.464Z,15.10
2023-05-09T20:12:46.617Z,15.00
2023-05-09T20:17:05.424Z,14.90
2023-05-09T20:21:27.804Z,14.90
2023-05-09T20:25:46.399Z,14.80
2023-05-09T20:30:05.014Z,14.70
2023-05-09T20:34:31.762Z,14.60
2023-05-09T20:38:54.290Z,14.50
2023-05-09T20:43:14.192Z,14.40
2023-05-09T20:47:32.496Z,14.30
2023-05-09T20:51:50.233Z,14.20
2023-05-09T20:56:09.842Z,14.10
2023-05-09T21:00:29.565Z,14.00
2023-05-09T21:04:47.351Z,13.90
2023-05-09T21:09:06.326Z,13.80
2023-05-09T21:13:25.034Z,13.70
2023-05-09T21:17:47.409Z,13.60
2023-05-09T21:22:05.783Z,13.60
2023-05-09T21:26:24.057Z,13.40
2023-05-09T21:30:43.555Z,13.40
2023-05-09T21:35:03.906Z,13.20
2023-05-09T21:39:21.045Z,13.20
2023-05-09T21:43:39.178Z,13.10
2023-05-09T21:47:58.870Z,13.00
2023-05-09T21:52:18.525Z,12.90
2023-05-09T21:56:36.377Z,12.70
2023-05-09T22:00:54.620Z,12.60
2023-05-09T22:05:14.574Z,12.50
2023-05-09T22:09:34.220Z,12.40
2023-05-09T22:13:52.182Z,12.30
2023-05-09T22:18:09.862Z,12.30
2023-05-09T22:22:29.781Z,12.20
2023-05-09T22:26:48.928Z,12.20
2023-05-09T22:31:07.848Z,12.10
2023-05-09T22:35:25.577Z,12.10
2023-05-09T22:39:44.513Z,12.00
2023-05-09T22:44:04.192Z,11.90
2023-05-09T22:48:22.335Z,11.80
2023-05-09T22:52:40.600Z,11.80
2023-05-09T22:56:59.770Z,11.70
2023-05-09T23:01:19.681Z,11.60
2023-05-09T23:05:37.626Z,11.60
2023-05-09T23:09:55.870Z,11.50
2023-05-09T23:14:15.678Z,11.40
2023-05-09T23:18:34.951Z,11.40
2023-05-09T23:22:53.375Z,11.30
2023-05-09T23:27:11.021Z,11.20
2023-05-09T23:31:30.837Z,11.10
2023-05-09T23:35:50.217Z,11.00
2023-05-09T23:40:09.454Z,11.00
2023-05-09T23:44:30.138Z,11.00
2023-05-09T23:48:48.683Z,10.90
2023-05-09T23:53:08.684Z,10.80
2023-05-09T23:57:26.671Z,10.80
